Time;durP1;ratioP1;P1;durP2;ratioP2;P2;SDS_P1;SDS_P2;PMS_P1;PMS_P2;Temp;Humidity;BMP_temperature;BMP_pressure;BME280_temperature;BME280_humidity;BME280_pressure;Samples;Min_cycle;Max_cycle;Signal;HPM_P1;HPM_P2
2022/04/28 03:01:28;;;;;;;0.90;0.90;;;10.50;74.60;;;;;;5744309;23;20488;-67
2022/04/28 03:03:55;;;;;;;0.80;0.80;;;10.40;74.70;;;;;;5013717;28;20444;-67
2022/04/28 03:11:52;;;;;;;1.23;1.13;;;10.40;74.70;;;;;;5013656;28;20925;-68
2022/04/28 03:14:19;;;;;;;1.10;1.10;;;10.30;74.90;;;;;;5013075;28;20978;-68
2022/04/28 03:16:47;;;;;;;0.90;0.90;;;10.30;74.80;;;;;;5013953;28;20456;-68
2022/04/28 03:19:14;;;;;;;1.10;1.10;;;10.30;74.80;;;;;;5012880;28;20870;-68
2022/04/28 03:21:40;;;;;;;0.90;0.90;;;10.30;75.00;;;;;;5012820;28;20979;-68
2022/04/28 03:24:07;;;;;;;1.00;1.00;;;10.20;75.00;;;;;;5013080;28;20450;-68
2022/04/28 03:26:37;;;;;;;1.13;1.13;;;10.20;75.00;;;;;;5013147;28;20483;-68
2022/04/28 03:29:04;;;;;;;1.00;1.00;;;10.20;75.10;;;;;;5012991;28;20553;-67
2022/04/28 03:31:31;;;;;;;1.20;1.00;;;10.20;75.00;;;;;;5012947;28;20890;-68
2022/04/28 03:33:59;;;;;;;0.90;0.90;;;10.20;75.00;;;;;;5013403;28;20475;-68
2022/04/28 03:39:09;;;;;;;1.37;1.27;;;10.10;75.00;;;;;;5012947;28;20413;-68
2022/04/28 03:41:36;;;;;;;1.10;1.00;;;10.00;75.40;;;;;;5012744;28;20468;-68
2022/04/28 03:44:03;;;;;;;0.90;0.90;;;10.00;75.60;;;;;;5013014;28;20444;-68
2022/04/28 03:46:30;;;;;;;1.50;1.03;;;10.00;75.50;;;;;;5012813;28;20854;-68
2022/04/28 03:48:56;;;;;;;0.97;0.97;;;9.90;75.60;;;;;;5012507;28;20949;-68
2022/04/28 03:51:24;;;;;;;1.10;1.10;;;10.00;75.60;;;;;;5011962;28;20472;-68
2022/04/28 03:53:51;;;;;;;1.10;1.10;;;10.00;75.60;;;;;;5012852;28;20536;-68
2022/04/28 03:56:18;;;;;;;1.10;1.10;;;10.00;75.60;;;;;;5012857;28;20456;-68
2022/04/28 03:58:45;;;;;;;1.20;1.20;;;10.00;75.70;;;;;;5012502;28;20514;-69
2022/04/28 04:01:12;;;;;;;1.03;0.93;;;10.00;75.70;;;;;;5012254;28;20992;-69
2022/04/28 04:03:38;;;;;;;1.20;1.20;;;9.90;75.90;;;;;;5012421;28;20935;-70
2022/04/28 04:06:05;;;;;;;1.23;1.17;;;10.00;75.70;;;;;;5012622;28;20460;-69
2022/04/28 04:08:33;;;;;;;1.30;1.30;;;10.00;75.80;;;;;;5012567;28;20553;-70
2022/04/28 04:11:00;;;;;;;1.20;1.10;;;10.00;75.70;;;;;;5012601;28;20534;-70
2022/04/28 04:13:26;;;;;;;1.10;1.10;;;10.00;75.80;;;;;;5013289;28;20479;-70
2022/04/28 04:15:53;;;;;;;1.40;1.30;;;10.00;75.80;;;;;;5012482;28;20448;-70
2022/04/28 04:18:20;;;;;;;1.30;1.20;;;10.00;75.80;;;;;;5012518;28;20503;-70
2022/04/28 04:20:46;;;;;;;1.10;1.10;;;10.00;75.70;;;;;;5012535;28;20471;-70
2022/04/28 04:23:13;;;;;;;1.60;1.50;;;10.00;75.90;;;;;;5012239;28;20940;-70
2022/04/28 04:25:41;;;;;;;1.20;1.10;;;10.00;75.80;;;;;;5012231;28;20917;-70
2022/04/28 04:28:08;;;;;;;1.40;1.40;;;10.00;75.90;;;;;;5012584;28;20476;-68
2022/04/28 04:33:19;;;;;;;1.20;1.20;;;10.10;76.00;;;;;;5012290;28;20409;-70
2022/04/28 04:35:46;;;;;;;1.20;1.20;;;10.10;75.80;;;;;;5012453;28;20451;-68
2022/04/28 04:38:13;;;;;;;1.20;1.20;;;10.20;75.90;;;;;;5012073;28;20872;-68
2022/04/28 04:40:41;;;;;;;1.20;1.20;;;10.20;75.90;;;;;;5012112;28;21014;-70
2022/04/28 04:43:13;;;;;;;1.20;1.20;;;10.20;75.90;;;;;;5012449;28;20514;-68
2022/04/28 04:45:42;;;;;;;1.53;1.20;;;10.30;76.00;;;;;;5012571;28;20528;-68
2022/04/28 04:48:09;;;;;;;1.10;1.10;;;10.40;76.00;;;;;;5013025;28;20606;-68
2022/04/28 04:50:36;;;;;;;1.43;1.43;;;10.40;76.00;;;;;;5013634;28;20463;-68
2022/04/28 04:53:04;;;;;;;1.20;1.20;;;10.50;75.90;;;;;;5013480;28;20444;-68
2022/04/28 04:55:31;;;;;;;1.07;1.07;;;10.60;76.00;;;;;;5013638;28;20460;-68
2022/04/28 04:57:59;;;;;;;1.53;1.43;;;10.70;76.00;;;;;;5012613;28;20911;-68
2022/04/28 05:00:25;;;;;;;1.37;1.33;;;10.90;75.80;;;;;;5012468;28;20456;-68
2022/04/28 05:02:52;;;;;;;1.10;1.10;;;10.90;75.70;;;;;;5014789;28;20459;-68
2022/04/28 05:05:19;;;;;;;1.30;1.30;;;11.10;75.40;;;;;;5015706;28;20447;-68
2022/04/28 05:07:45;;;;;;;1.30;1.20;;;11.20;75.10;;;;;;5015835;28;20902;-68
2022/04/28 05:10:12;;;;;;;1.43;1.40;;;11.40;75.00;;;;;;5015716;28;20452;-68
2022/04/28 05:12:39;;;;;;;1.27;1.27;;;11.50;74.90;;;;;;5015703;28;20480;-68
2022/04/28 05:15:08;;;;;;;1.60;1.50;;;11.60;74.90;;;;;;5015757;28;20448;-68
2022/04/28 05:17:36;;;;;;;1.00;1.00;;;11.70;74.70;;;;;;5016038;28;20483;-69
2022/04/28 05:20:03;;;;;;;1.50;1.40;;;11.80;74.50;;;;;;5015767;28;20456;-68
2022/04/28 05:22:29;;;;;;;1.00;1.00;;;12.00;74.20;;;;;;5015710;28;20472;-68
2022/04/28 05:24:56;;;;;;;1.20;1.20;;;12.20;73.90;;;;;;5015676;28;20447;-68
2022/04/28 05:27:22;;;;;;;1.20;1.20;;;12.40;73.70;;;;;;5015626;28;20475;-68
2022/04/28 05:29:49;;;;;;;1.00;1.00;;;12.60;73.00;;;;;;5015540;28;20448;-68
2022/04/28 05:32:17;;;;;;;1.23;1.20;;;12.70;72.20;;;;;;5015381;28;20472;-69
2022/04/28 05:34:44;;;;;;;1.20;1.20;;;12.80;71.20;;;;;;5015450;28;20503;-67
2022/04/28 05:37:12;;;;;;;1.40;1.30;;;13.00;71.30;;;;;;5015395;28;20502;-68
2022/04/28 05:39:41;;;;;;;1.10;1.10;;;13.10;71.10;;;;;;5015304;28;20463;-68
2022/04/28 05:42:08;;;;;;;1.23;1.23;;;13.20;70.10;;;;;;5014924;28;20468;-68
2022/04/28 05:47:22;;;;;;;1.20;1.20;;;12.90;70.00;;;;;;5015214;28;20498;-68
2022/04/28 05:49:48;;;;;;;1.20;1.20;;;12.90;69.50;;;;;;5015147;28;20935;-68
2022/04/28 05:52:15;;;;;;;1.37;1.37;;;12.70;70.50;;;;;;5015091;28;20526;-68
2022/04/28 05:54:42;;;;;;;1.20;1.20;;;12.70;70.50;;;;;;5015337;28;20506;-67
2022/04/28 05:57:11;;;;;;;1.63;1.20;;;12.60;70.70;;;;;;5015003;28;20440;-67
2022/04/28 05:59:38;;;;;;;1.00;1.00;;;12.70;71.40;;;;;;5015712;28;20507;-68
2022/04/28 06:02:05;;;;;;;1.50;1.40;;;12.80;71.10;;;;;;5015149;28;20488;-69
2022/04/28 06:04:33;;;;;;;1.13;1.13;;;13.00;70.40;;;;;;5015130;28;20524;-70
2022/04/28 06:06:59;;;;;;;1.40;1.30;;;13.20;70.30;;;;;;5014818;28;20531;-69
2022/04/28 06:09:26;;;;;;;1.17;1.17;;;13.40;69.90;;;;;;5014753;28;20867;-69
2022/04/28 06:11:53;;;;;;;1.13;1.10;;;13.50;68.80;;;;;;5014478;28;21041;-69
2022/04/28 06:14:19;;;;;;;0.90;0.90;;;13.40;68.40;;;;;;5014315;28;20571;-69
2022/04/28 06:16:46;;;;;;;1.00;1.00;;;13.20;68.50;;;;;;5014169;28;20452;-69
2022/04/28 06:19:13;;;;;;;1.10;1.10;;;13.30;68.90;;;;;;5014481;28;20444;-69
2022/04/28 06:21:41;;;;;;;1.07;1.07;;;13.40;68.10;;;;;;5014341;28;20546;-70
2022/04/28 06:24:07;;;;;;;1.10;1.10;;;13.30;68.00;;;;;;5014877;28;20514;-69
2022/04/28 06:26:34;;;;;;;1.03;0.97;;;13.50;68.20;;;;;;5015080;28;20452;-70
2022/04/28 06:29:02;;;;;;;1.13;1.13;;;13.60;67.90;;;;;;4995203;28;20508;-70
2022/04/28 06:31:29;;;;;;;1.27;1.17;;;13.70;67.50;;;;;;4995129;28;20473;-70
2022/04/28 06:33:55;;;;;;;1.30;1.20;;;13.70;66.30;;;;;;4995153;28;20480;-69
2022/04/28 06:36:22;;;;;;;1.03;1.03;;;13.70;67.00;;;;;;4994578;28;20480;-70
2022/04/28 06:38:50;;;;;;;1.23;1.23;;;13.40;66.20;;;;;;4995159;28;20496;-69
2022/04/28 06:41:16;;;;;;;0.93;0.93;;;13.40;66.70;;;;;;4994451;28;20465;-70
2022/04/28 06:43:43;;;;;;;1.00;1.00;;;13.60;67.00;;;;;;4994567;28;20456;-69
2022/04/28 06:46:12;;;;;;;1.00;1.00;;;13.60;67.10;;;;;;4994493;28;20524;-70
2022/04/28 06:48:39;;;;;;;1.03;1.03;;;13.80;66.20;;;;;;4994816;28;20932;-70
2022/04/28 06:51:06;;;;;;;1.10;1.00;;;13.80;66.10;;;;;;4994000;28;20975;-70
2022/04/28 06:53:32;;;;;;;1.00;1.00;;;13.80;66.00;;;;;;4994479;28;20452;-69
2022/04/28 06:56:00;;;;;;;0.90;0.90;;;13.90;65.50;;;;;;4994263;28;20503;-68
2022/04/28 06:58:27;;;;;;;1.00;1.00;;;13.90;65.80;;;;;;4993967;28;20941;-68
2022/04/28 07:00:54;;;;;;;0.80;0.80;;;14.10;66.40;;;;;;4993899;28;21026;-70
2022/04/28 07:03:20;;;;;;;0.90;0.90;;;14.20;65.30;;;;;;4994428;28;20429;-69
2022/04/28 07:05:47;;;;;;;0.80;0.80;;;14.30;64.70;;;;;;4994256;28;20452;-69
2022/04/28 07:08:14;;;;;;;1.00;1.00;;;14.30;64.80;;;;;;4993692;28;21000;-69
2022/04/28 07:10:41;;;;;;;1.10;1.00;;;14.50;65.20;;;;;;4993829;28;20873;-70
2022/04/28 07:13:09;;;;;;;0.80;0.80;;;14.50;64.50;;;;;;4994137;28;20495;-69
2022/04/28 07:15:36;;;;;;;0.90;0.90;;;14.70;65.40;;;;;;4994289;28;20445;-69
2022/04/28 07:18:03;;;;;;;0.90;0.90;;;14.80;64.70;;;;;;4994774;28;20496;-69
2022/04/28 07:20:31;;;;;;;0.80;0.80;;;14.90;63.40;;;;;;4994939;28;20963;-71
2022/04/28 07:22:59;;;;;;;1.03;1.03;;;14.70;65.30;;;;;;4994805;28;20456;-69
2022/04/28 07:25:26;;;;;;;0.80;0.80;;;14.80;64.00;;;;;;4993862;28;20511;-71
2022/04/28 07:27:53;;;;;;;0.80;0.80;;;14.80;64.00;;;;;;4994353;28;20535;-69
2022/04/28 07:30:21;;;;;;;0.90;0.90;;;14.80;63.80;;;;;;4994538;28;20445;-70
2022/04/28 07:32:48;;;;;;;0.87;0.87;;;14.60;64.20;;;;;;4994605;28;20483;-69
2022/04/28 07:35:15;;;;;;;1.10;1.10;;;14.90;64.00;;;;;;4994474;28;20500;-68
2022/04/28 07:37:42;;;;;;;0.90;0.90;;;15.00;64.30;;;;;;4994429;28;20446;-70
2022/04/28 07:40:10;;;;;;;0.80;0.80;;;15.10;65.10;;;;;;4994610;28;20888;-70
2022/04/28 07:42:37;;;;;;;0.80;0.80;;;15.40;63.60;;;;;;4994317;28;20523;-70
2022/04/28 07:45:04;;;;;;;0.97;0.93;;;15.60;61.30;;;;;;4994326;28;20987;-69
2022/04/28 07:47:32;;;;;;;0.80;0.80;;;15.50;61.40;;;;;;4994435;28;20460;-70
2022/04/28 07:49:59;;;;;;;0.80;0.80;;;15.70;61.40;;;;;;4994490;28;20453;-70
2022/04/28 07:52:26;;;;;;;0.90;0.90;;;15.80;61.90;;;;;;4993869;28;20991;-71
2022/04/28 07:54:52;;;;;;;0.80;0.80;;;15.80;62.30;;;;;;4994412;28;20516;-70
2022/04/28 07:57:22;;;;;;;1.03;0.80;;;15.70;60.40;;;;;;4994483;28;20803;-70
2022/04/28 07:59:49;;;;;;;0.80;0.77;;;15.40;60.30;;;;;;4993671;28;20457;-69
2022/04/28 08:02:15;;;;;;;0.70;0.70;;;15.40;61.00;;;;;;4992968;28;20475;-69
2022/04/28 08:04:44;;;;;;;0.73;0.73;;;15.40;61.60;;;;;;4993609;28;20503;-69
2022/04/28 08:07:10;;;;;;;0.70;0.70;;;15.70;60.20;;;;;;4993617;28;20473;-68
2022/04/28 08:09:37;;;;;;;0.80;0.80;;;16.10;61.70;;;;;;4994076;28;20551;-67
2022/04/28 08:12:05;;;;;;;0.93;0.80;;;16.20;60.30;;;;;;4993674;28;20465;-70
2022/04/28 08:14:32;;;;;;;1.37;0.80;;;16.40;59.60;;;;;;4993589;28;20456;-69
2022/04/28 08:16:59;;;;;;;0.80;0.80;;;16.50;60.30;;;;;;4993405;28;20548;-67
2022/04/28 08:19:26;;;;;;;0.90;0.90;;;16.70;58.20;;;;;;4993403;28;20449;-67
2022/04/28 08:21:54;;;;;;;0.90;0.90;;;16.50;58.20;;;;;;4992927;28;20469;-69
2022/04/28 08:24:21;;;;;;;0.80;0.80;;;16.40;56.70;;;;;;4993264;28;20484;-69
2022/04/28 08:26:48;;;;;;;0.80;0.80;;;16.40;57.90;;;;;;4993207;28;20449;-69
2022/04/28 08:29:15;;;;;;;0.90;0.90;;;16.50;57.00;;;;;;4993167;28;20489;-69
2022/04/28 08:31:44;;;;;;;0.80;0.80;;;16.50;55.80;;;;;;4992862;28;21006;-69
2022/04/28 08:34:11;;;;;;;1.00;0.90;;;16.30;56.80;;;;;;4993185;28;20816;-69
2022/04/28 08:36:38;;;;;;;1.10;0.70;;;16.20;57.80;;;;;;4993852;28;20444;-69
2022/04/28 08:39:07;;;;;;;0.80;0.80;;;16.20;58.00;;;;;;4996844;28;20511;-67
2022/04/28 08:41:35;;;;;;;1.00;0.90;;;16.40;56.80;;;;;;4996367;28;20527;-68
2022/04/28 08:44:03;;;;;;;0.90;0.90;;;16.30;55.40;;;;;;4996439;28;20449;-67
2022/04/28 08:49:15;;;;;;;0.60;0.60;;;16.50;56.30;;;;;;4997343;28;20464;-70
2022/04/28 08:51:43;;;;;;;0.80;0.80;;;16.60;54.40;;;;;;4997540;28;20477;-68
2022/04/28 08:54:13;;;;;;;1.00;0.90;;;16.20;53.80;;;;;;4996846;28;20449;-68
2022/04/28 08:56:40;;;;;;;0.70;0.70;;;16.30;55.80;;;;;;4996516;28;20477;-68
2022/04/28 08:59:07;;;;;;;0.70;0.70;;;16.40;55.30;;;;;;4996586;28;20499;-69
2022/04/28 09:01:34;;;;;;;0.67;0.60;;;16.50;54.40;;;;;;4996789;28;20547;-69
2022/04/28 09:04:03;;;;;;;0.70;0.60;;;16.30;52.70;;;;;;4997045;28;20921;-68
2022/04/28 09:06:34;;;;;;;0.60;0.60;;;16.40;53.30;;;;;;4997386;28;20814;-70
2022/04/28 09:09:04;;;;;;;0.70;0.70;;;16.70;52.90;;;;;;4997335;28;20468;-69
2022/04/28 09:11:35;;;;;;;0.80;0.80;;;16.70;52.70;;;;;;4997147;28;20481;-69
2022/04/28 09:14:13;;;;;;;0.70;0.70;;;16.90;54.10;;;;;;4997108;28;20439;-69
2022/04/28 09:16:43;;;;;;;0.80;0.80;;;17.20;52.40;;;;;;4998060;28;20920;-69
2022/04/28 09:19:11;;;;;;;0.80;0.70;;;17.20;53.40;;;;;;4997076;28;20492;-69
2022/04/28 09:21:39;;;;;;;0.80;0.80;;;17.20;52.00;;;;;;4996932;28;20477;-71
2022/04/28 09:24:07;;;;;;;0.70;0.60;;;17.50;53.20;;;;;;4996501;28;20449;-69
2022/04/28 09:26:35;;;;;;;0.73;0.70;;;17.60;52.10;;;;;;4996261;28;20458;-73
2022/04/28 09:29:04;;;;;;;0.80;0.80;;;17.80;53.00;;;;;;4996109;28;20492;-72
2022/04/28 09:31:34;;;;;;;0.80;0.70;;;18.10;52.60;;;;;;4996058;28;20539;-73
2022/04/28 09:34:06;;;;;;;0.70;0.70;;;17.80;48.80;;;;;;4996550;28;20441;-73
2022/04/28 09:36:33;;;;;;;0.80;0.77;;;17.60;49.60;;;;;;4995710;28;20912;-69
2022/04/28 09:38:59;;;;;;;1.07;0.73;;;17.40;50.60;;;;;;4995484;28;20511;-68
2022/04/28 09:44:12;;;;;;;1.00;0.80;;;17.50;51.00;;;;;;4995666;28;20916;-68
2022/04/28 09:46:43;;;;;;;0.70;0.70;;;17.60;49.80;;;;;;4995793;28;20453;-69
2022/04/28 09:49:10;;;;;;;0.70;0.70;;;17.70;50.40;;;;;;4994621;28;20484;-69
2022/04/28 09:51:39;;;;;;;0.80;0.73;;;17.90;49.00;;;;;;4995731;28;20469;-69
2022/04/28 09:54:09;;;;;;;0.70;0.70;;;18.00;46.60;;;;;;4995403;28;20523;-70
2022/04/28 09:56:37;;;;;;;0.70;0.70;;;18.10;46.90;;;;;;4995552;28;20972;-70
2022/04/28 09:59:05;;;;;;;1.10;0.70;;;18.10;46.30;;;;;;4995594;28;20441;-69
2022/04/28 10:01:34;;;;;;;0.70;0.63;;;18.30;45.40;;;;;;4995370;28;20579;-69
2022/04/28 10:04:01;;;;;;;0.67;0.67;;;18.40;45.40;;;;;;4995513;28;20460;-69
2022/04/28 10:06:34;;;;;;;0.70;0.70;;;18.40;44.40;;;;;;4995614;28;20457;-69
2022/04/28 10:09:04;;;;;;;0.73;0.70;;;18.40;45.20;;;;;;4995953;28;20477;-70
2022/04/28 10:11:32;;;;;;;0.70;0.70;;;18.00;46.60;;;;;;4995510;28;20512;-69
2022/04/28 10:14:00;;;;;;;0.70;0.70;;;17.90;44.50;;;;;;4995441;28;20461;-69
2022/04/28 10:16:27;;;;;;;0.70;0.70;;;17.90;44.60;;;;;;4996045;28;20445;-69
2022/04/28 10:19:02;;;;;;;0.63;0.60;;;18.00;45.70;;;;;;4995376;28;20445;-69
2022/04/28 10:21:34;;;;;;;0.63;0.63;;;17.90;45.10;;;;;;4995290;28;20559;-69
2022/04/28 10:32:56;;;;;;;0.70;0.70;;;18.80;45.60;;;;;;4996000;28;20453;-69
2022/04/28 10:35:35;;;;;;;0.70;0.63;;;18.40;47.50;;;;;;4998614;28;20504;-69
2022/04/28 10:38:07;;;;;;;0.70;0.70;;;18.60;47.60;;;;;;4996763;28;20441;-69
2022/04/28 10:40:38;;;;;;;0.80;0.80;;;18.80;48.40;;;;;;4996948;28;20438;-70
2022/04/28 10:43:05;;;;;;;0.70;0.70;;;18.50;46.60;;;;;;4996365;28;20426;-69
2022/04/28 10:45:40;;;;;;;0.70;0.70;;;18.50;48.50;;;;;;4996101;28;20457;-70
2022/04/28 10:48:28;;;;;;;0.70;0.70;;;18.90;47.60;;;;;;4996503;28;20437;-70
2022/04/28 10:51:17;;;;;;;0.60;0.60;;;19.00;46.40;;;;;;4995227;28;20468;-70
2022/04/28 10:54:05;;;;;;;0.70;0.70;;;19.10;47.70;;;;;;4994566;28;20426;-70
2022/04/28 10:57:05;;;;;;;0.70;0.70;;;19.00;44.60;;;;;;4994519;28;20433;-71
2022/04/28 10:59:37;;;;;;;0.70;0.70;;;18.90;47.40;;;;;;4994224;28;20425;-70
2022/04/28 11:02:40;;;;;;;1.23;0.70;;;18.90;47.90;;;;;;4994726;28;20535;-69
2022/04/28 11:05:42;;;;;;;0.80;0.80;;;19.00;46.70;;;;;;4994579;28;20904;-70
2022/04/28 11:08:34;;;;;;;0.70;0.70;;;19.40;47.10;;;;;;4995145;28;20464;-70
2022/04/28 11:11:15;;;;;;;0.70;0.70;;;19.70;47.40;;;;;;4994566;28;20472;-69
2022/04/28 11:13:49;;;;;;;0.70;0.70;;;19.80;46.10;;;;;;4995216;28;20449;-70
2022/04/28 11:16:17;;;;;;;0.70;0.70;;;20.00;47.90;;;;;;4994679;28;20433;-70
2022/04/28 11:18:44;;;;;;;0.70;0.60;;;20.00;42.90;;;;;;4994666;28;20480;-71
2022/04/28 11:21:11;;;;;;;0.80;0.80;;;19.90;44.30;;;;;;4994619;28;20559;-69
2022/04/28 11:23:43;;;;;;;0.70;0.70;;;20.10;45.20;;;;;;4994497;28;20528;-70
2022/04/28 11:26:10;;;;;;;0.70;0.67;;;19.90;45.20;;;;;;4994424;28;20516;-70
2022/04/28 11:28:38;;;;;;;0.70;0.70;;;19.50;45.80;;;;;;4994124;28;20457;-69
2022/04/28 11:31:11;;;;;;;0.60;0.60;;;19.50;44.10;;;;;;4994304;28;20469;-70
2022/04/28 11:33:42;;;;;;;0.70;0.70;;;19.90;45.70;;;;;;4993763;28;20457;-69
2022/04/28 11:36:20;;;;;;;0.70;0.70;;;20.30;45.10;;;;;;4994744;28;20467;-70
2022/04/28 11:38:57;;;;;;;0.67;0.67;;;20.60;44.80;;;;;;4994228;28;20501;-70
2022/04/28 11:41:34;;;;;;;0.70;0.70;;;20.50;43.60;;;;;;4994053;28;21003;-69
2022/04/28 11:44:06;;;;;;;0.60;0.50;;;20.30;43.90;;;;;;4994158;28;20465;-70
2022/04/28 11:46:34;;;;;;;0.60;0.60;;;20.20;42.50;;;;;;4994237;28;20438;-70
2022/04/28 11:49:01;;;;;;;0.80;0.60;;;20.30;42.80;;;;;;4993556;28;20906;-70
2022/04/28 11:51:28;;;;;;;0.80;0.70;;;19.90;44.50;;;;;;4994254;28;20485;-70
2022/04/28 11:53:56;;;;;;;0.70;0.63;;;20.30;43.20;;;;;;4994540;28;20461;-70
2022/04/28 11:56:29;;;;;;;0.60;0.60;;;20.40;44.90;;;;;;4994153;28;20452;-70
2022/04/28 11:58:58;;;;;;;0.60;0.60;;;20.70;46.20;;;;;;4993736;28;20943;-69
2022/04/28 12:01:30;;;;;;;1.00;0.63;;;20.60;43.90;;;;;;4993420;28;20594;-69
2022/04/28 12:03:59;;;;;;;0.60;0.60;;;20.50;43.80;;;;;;4993254;28;20429;-69
2022/04/28 12:06:26;;;;;;;0.60;0.60;;;20.70;44.00;;;;;;4993356;28;20456;-69
2022/04/28 12:08:56;;;;;;;0.70;0.70;;;20.40;42.10;;;;;;4993437;28;20507;-69
2022/04/28 12:19:52;;;;;;;0.80;0.70;;;19.90;45.20;;;;;;4997230;28;20404;-69
2022/04/28 12:22:36;;;;;;;1.10;0.60;;;20.00;43.20;;;;;;4997364;28;20534;-69
2022/04/28 12:25:07;;;;;;;0.60;0.60;;;20.30;45.90;;;;;;4997492;28;20797;-70
2022/04/28 12:27:38;;;;;;;0.77;0.60;;;20.60;43.00;;;;;;4996930;28;20900;-69
2022/04/28 12:30:09;;;;;;;0.70;0.70;;;21.00;44.30;;;;;;4997154;28;20902;-69
2022/04/28 12:32:43;;;;;;;0.70;0.70;;;21.00;44.00;;;;;;4997036;28;20508;-70
2022/04/28 12:35:09;;;;;;;1.20;0.63;;;20.60;43.20;;;;;;4997789;28;20500;-70
2022/04/28 12:37:39;;;;;;;0.70;0.60;;;20.70;42.80;;;;;;4996565;28;20857;-69
2022/04/28 12:40:10;;;;;;;0.80;0.80;;;20.40;44.20;;;;;;4997301;28;21003;-69
2022/04/28 12:42:46;;;;;;;0.97;0.67;;;20.30;43.80;;;;;;4997189;28;20464;-68
2022/04/28 12:45:13;;;;;;;0.67;0.60;;;20.00;43.90;;;;;;4997205;28;20445;-69
2022/04/28 12:47:42;;;;;;;0.70;0.70;;;20.20;44.30;;;;;;4997120;28;20525;-69
2022/04/28 12:50:22;;;;;;;0.70;0.60;;;20.10;43.30;;;;;;4997191;28;20531;-71
2022/04/28 12:52:49;;;;;;;0.70;0.63;;;20.20;43.40;;;;;;4996673;28;20452;-70
2022/04/28 12:55:19;;;;;;;0.70;0.70;;;20.50;44.80;;;;;;4997025;28;20829;-69
2022/04/28 12:57:46;;;;;;;0.60;0.60;;;20.90;44.50;;;;;;4997481;28;20508;-69
2022/04/28 13:00:14;;;;;;;0.70;0.70;;;20.90;42.20;;;;;;4996974;28;20449;-70
2022/04/28 13:02:47;;;;;;;0.70;0.70;;;21.00;42.50;;;;;;4996809;28;20476;-69
2022/04/28 13:05:16;;;;;;;0.60;0.60;;;20.80;43.20;;;;;;4997273;28;20429;-69
2022/04/28 13:07:43;;;;;;;0.67;0.60;;;21.00;43.10;;;;;;4996847;28;20503;-69
2022/04/28 13:10:12;;;;;;;0.70;0.70;;;21.10;42.70;;;;;;4996797;28;20472;-70
2022/04/28 13:12:41;;;;;;;0.70;0.60;;;21.40;41.90;;;;;;4996422;28;20848;-69
2022/04/28 13:15:08;;;;;;;0.60;0.60;;;21.50;42.10;;;;;;4996778;28;20512;-68
2022/04/28 13:17:36;;;;;;;0.70;0.70;;;21.40;42.50;;;;;;4996340;28;20937;-70
2022/04/28 13:20:04;;;;;;;0.70;0.70;;;21.20;42.00;;;;;;4997069;28;20529;-70
2022/04/28 13:22:30;;;;;;;0.80;0.77;;;21.10;43.00;;;;;;4995700;28;21043;-69
2022/04/28 13:24:57;;;;;;;0.63;0.60;;;21.00;42.30;;;;;;4995926;28;20445;-69
2022/04/28 13:27:25;;;;;;;0.60;0.60;;;21.10;42.50;;;;;;4995979;28;20510;-68
2022/04/28 13:29:53;;;;;;;0.60;0.60;;;21.00;42.80;;;;;;4995569;28;20682;-69
2022/04/28 13:32:20;;;;;;;0.70;0.60;;;20.80;43.10;;;;;;4995758;28;20516;-69
2022/04/28 13:34:46;;;;;;;0.70;0.67;;;20.90;42.90;;;;;;4995793;28;20448;-69
2022/04/28 13:37:13;;;;;;;0.70;0.70;;;21.00;41.80;;;;;;4995800;28;20511;-69
2022/04/28 13:39:40;;;;;;;0.70;0.60;;;20.80;42.70;;;;;;4995753;28;20492;-68
2022/04/28 13:42:07;;;;;;;0.80;0.60;;;20.80;43.50;;;;;;4995743;28;20464;-69
2022/04/28 13:44:33;;;;;;;0.70;0.67;;;20.80;43.00;;;;;;4995805;28;20453;-70
2022/04/28 13:47:01;;;;;;;0.70;0.70;;;20.90;43.10;;;;;;4995611;28;20519;-69
2022/04/28 13:49:28;;;;;;;0.60;0.60;;;21.20;42.10;;;;;;4995408;28;20485;-69
2022/04/28 13:51:56;;;;;;;0.70;0.70;;;21.50;43.00;;;;;;4995522;28;20557;-69
2022/04/28 13:54:22;;;;;;;0.70;0.60;;;21.40;41.60;;;;;;4995538;28;20491;-69
2022/04/28 13:56:49;;;;;;;0.80;0.80;;;21.10;41.80;;;;;;4995339;28;20456;-69
2022/04/28 13:59:16;;;;;;;0.70;0.70;;;21.10;41.50;;;;;;4995540;28;20453;-69
2022/04/28 14:01:42;;;;;;;0.73;0.67;;;20.90;41.40;;;;;;4995163;28;20837;-70
2022/04/28 14:04:10;;;;;;;0.70;0.60;;;20.90;43.50;;;;;;4995107;28;20945;-70
2022/04/28 14:06:37;;;;;;;0.63;0.60;;;21.10;42.60;;;;;;4995733;28;20639;-69
2022/04/28 14:09:04;;;;;;;0.70;0.70;;;21.20;42.50;;;;;;4995364;28;20504;-69
2022/04/28 14:11:30;;;;;;;0.70;0.60;;;21.50;41.80;;;;;;4995075;28;20516;-70
2022/04/28 14:13:57;;;;;;;0.80;0.60;;;22.00;44.70;;;;;;4994620;28;20845;-70
2022/04/28 14:16:24;;;;;;;0.60;0.60;;;22.30;41.80;;;;;;4995105;28;20495;-70
2022/04/28 14:18:50;;;;;;;0.60;0.60;;;22.00;40.50;;;;;;4995004;28;20500;-70
2022/04/28 14:21:19;;;;;;;1.17;0.77;;;21.60;41.40;;;;;;4994973;28;20524;-69
2022/04/28 14:23:46;;;;;;;0.63;0.60;;;21.60;40.70;;;;;;4994942;28;20459;-69
2022/04/28 14:26:12;;;;;;;0.70;0.70;;;21.50;41.30;;;;;;4994945;28;20865;-71
2022/04/28 14:28:39;;;;;;;0.73;0.70;;;21.50;41.40;;;;;;4994593;28;20487;-69
2022/04/28 14:31:06;;;;;;;0.70;0.70;;;21.20;41.90;;;;;;4994745;28;20488;-70
2022/04/28 14:33:32;;;;;;;0.70;0.70;;;21.00;41.20;;;;;;4994816;28;20480;-69
2022/04/28 14:35:59;;;;;;;0.70;0.70;;;21.10;42.70;;;;;;4994320;28;20536;-69
2022/04/28 14:38:27;;;;;;;0.70;0.70;;;21.40;42.10;;;;;;4994830;28;20507;-69
2022/04/28 14:40:54;;;;;;;0.70;0.67;;;21.30;41.80;;;;;;4994556;28;20519;-70
2022/04/28 14:43:21;;;;;;;0.60;0.60;;;21.30;42.80;;;;;;4994746;28;20452;-69
2022/04/28 14:45:48;;;;;;;0.70;0.70;;;21.60;41.50;;;;;;4994562;28;20449;-69
2022/04/28 14:48:16;;;;;;;0.70;0.70;;;21.40;41.10;;;;;;4994490;28;20453;-70
2022/04/28 14:53:30;;;;;;;0.70;0.70;;;20.80;42.60;;;;;;4994486;28;20479;-70
2022/04/28 14:55:56;;;;;;;0.60;0.60;;;21.00;43.00;;;;;;4994012;28;20952;-70
2022/04/28 14:58:23;;;;;;;0.70;0.70;;;21.40;44.10;;;;;;4994354;28;20457;-69
2022/04/28 15:00:51;;;;;;;0.90;0.60;;;21.90;41.10;;;;;;4993830;28;20897;-70
2022/04/28 15:03:19;;;;;;;0.80;0.70;;;22.40;42.00;;;;;;4994227;28;20492;-69
2022/04/28 15:05:45;;;;;;;0.60;0.60;;;22.90;39.20;;;;;;4994076;28;20540;-69
2022/04/28 15:08:12;;;;;;;0.70;0.70;;;23.30;39.70;;;;;;4994269;28;20543;-69
2022/04/28 15:10:40;;;;;;;0.60;0.60;;;24.00;38.30;;;;;;4994044;28;20485;-69
2022/04/28 15:13:08;;;;;;;0.60;0.60;;;24.70;37.50;;;;;;4993918;28;20449;-70
2022/04/28 15:15:38;;;;;;;0.80;0.70;;;25.70;36.50;;;;;;5113692;23;20581;-76
2022/04/28 15:18:05;;;;;;;0.70;0.70;;;25.80;35.10;;;;;;4995488;28;20496;-76
2022/04/28 15:20:31;;;;;;;0.70;0.60;;;26.50;35.30;;;;;;4996131;28;20495;-76
2022/04/28 15:22:58;;;;;;;0.70;0.60;;;27.00;35.00;;;;;;4996041;28;20449;-75
2022/04/28 15:25:27;;;;;;;0.60;0.50;;;27.70;34.50;;;;;;4995088;28;20461;-75
2022/04/28 15:27:55;;;;;;;0.80;0.70;;;27.60;32.90;;;;;;4995034;28;20449;-76
2022/04/28 15:30:22;;;;;;;0.70;0.70;;;27.20;34.40;;;;;;4994977;28;20535;-76
2022/04/28 15:32:49;;;;;;;0.70;0.70;;;27.10;34.30;;;;;;4994477;28;20453;-77
2022/04/28 15:35:16;;;;;;;0.70;0.70;;;25.70;35.10;;;;;;4994130;28;20540;-76
2022/04/28 15:37:43;;;;;;;0.70;0.60;;;24.90;36.60;;;;;;4995303;28;20879;-76
2022/04/28 15:40:11;;;;;;;0.70;0.60;;;23.70;38.00;;;;;;4995028;28;20441;-76
2022/04/28 15:42:39;;;;;;;0.70;0.70;;;22.90;40.30;;;;;;4994551;28;20476;-77
2022/04/28 15:45:08;;;;;;;0.80;0.60;;;22.00;40.60;;;;;;4994113;28;20453;-76
2022/04/28 15:47:35;;;;;;;0.60;0.60;;;21.30;41.60;;;;;;4993923;28;20453;-75
2022/04/28 15:50:01;;;;;;;0.80;0.70;;;21.20;42.70;;;;;;4994301;28;20445;-76
2022/04/28 15:52:28;;;;;;;0.60;0.60;;;21.20;43.20;;;;;;4994498;28;20449;-76
2022/04/28 15:54:55;;;;;;;0.70;0.60;;;21.00;42.90;;;;;;4994259;28;20448;-74
2022/04/28 15:57:22;;;;;;;0.73;0.73;;;21.20;43.40;;;;;;4994099;28;20448;-74
2022/04/28 15:59:49;;;;;;;0.70;0.70;;;21.30;42.80;;;;;;4993920;28;20452;-76
2022/04/28 16:02:18;;;;;;;0.60;0.60;;;21.20;43.30;;;;;;4994499;28;20476;-76
2022/04/28 16:04:45;;;;;;;0.70;0.70;;;21.00;43.30;;;;;;4994980;28;20524;-76
2022/04/28 16:07:11;;;;;;;0.70;0.60;;;20.80;43.10;;;;;;4994482;28;20470;-76
2022/04/28 16:09:38;;;;;;;0.80;0.80;;;21.00;43.30;;;;;;4994310;28;20453;-76
2022/04/28 16:12:06;;;;;;;0.70;0.60;;;20.80;43.40;;;;;;4994143;28;20512;-75
2022/04/28 16:14:32;;;;;;;0.60;0.60;;;20.50;43.30;;;;;;4994213;28;20503;-76
2022/04/28 16:17:01;;;;;;;0.93;0.70;;;20.40;43.70;;;;;;4993887;28;20564;-76
2022/04/28 16:19:29;;;;;;;0.70;0.70;;;20.00;43.50;;;;;;4994023;28;20544;-74
2022/04/28 16:21:57;;;;;;;0.90;0.70;;;19.90;45.00;;;;;;4994121;28;20499;-78
2022/04/28 16:24:24;;;;;;;0.60;0.60;;;20.10;43.70;;;;;;4994429;28;20453;-76
2022/04/28 16:26:51;;;;;;;0.90;0.70;;;20.10;43.80;;;;;;4993848;28;20469;-76
2022/04/28 16:29:18;;;;;;;0.70;0.70;;;20.10;44.10;;;;;;4993925;28;20446;-77
2022/04/28 16:31:45;;;;;;;0.80;0.60;;;20.30;44.80;;;;;;4993911;28;20492;-77
2022/04/28 16:34:11;;;;;;;0.60;0.60;;;20.40;43.60;;;;;;4993918;28;20449;-76